Time;durP1;ratioP1;P1;durP2;ratioP2;P2;SDS_P1;SDS_P2;PMS_P1;PMS_P2;Temp;Humidity;BMP_temperature;BMP_pressure;BME280_temperature;BME280_humidity;BME280_pressure;Samples;Min_cycle;Max_cycle;Signal;HPM_P1;HPM_P2
2022/06/23 00:01:26;;;;;;;60.25;8.25;;;;;;;19.62;100.00;94303.06;4999542;28;20026;-85
2022/06/23 00:03:56;;;;;;;77.88;10.48;;;;;;;19.57;100.00;94303.25;4999286;28;20053;-85
2022/06/23 00:06:35;;;;;;;66.30;8.73;;;;;;;19.47;100.00;94312.41;4999182;28;20037;-85
2022/06/23 00:09:01;;;;;;;67.70;8.77;;;;;;;19.31;100.00;94306.91;4983270;28;20025;-85
2022/06/23 00:11:27;;;;;;;64.57;9.30;;;;;;;19.26;100.00;94307.09;4998934;28;20028;-85
2022/06/23 00:14:12;;;;;;;52.60;8.32;;;;;;;19.30;100.00;94305.38;4982946;28;20084;-84
2022/06/23 00:16:38;;;;;;;54.55;8.13;;;;;;;19.28;100.00;94308.34;4982993;28;20144;-85
2022/06/23 00:19:03;;;;;;;55.75;8.15;;;;;;;19.43;100.00;94308.84;5001071;28;20129;-85
2022/06/23 00:21:31;;;;;;;39.45;7.07;;;;;;;19.49;100.00;94304.88;5002719;28;20061;-84
2022/06/23 00:24:00;;;;;;;62.95;8.55;;;;;;;19.49;100.00;94299.56;4986820;28;20316;-85
2022/06/23 00:26:29;;;;;;;57.42;8.57;;;;;;;19.58;100.00;94300.28;4986456;28;20176;-85
2022/06/23 00:29:09;;;;;;;52.65;9.05;;;;;;;19.66;100.00;94301.31;5002801;28;20030;-85
2022/06/23 00:31:45;;;;;;;60.50;8.85;;;;;;;19.35;100.00;94299.84;5002624;28;20022;-85
2022/06/23 00:34:25;;;;;;;73.43;9.68;;;;;;;19.26;100.00;94296.47;4986489;28;20340;-84
2022/06/23 00:36:55;;;;;;;68.53;8.88;;;;;;;19.36;100.00;94302.16;5020086;28;20120;-85
2022/06/23 00:39:34;;;;;;;61.45;8.85;;;;;;;19.41;100.00;94295.13;5002341;28;20022;-85
2022/06/23 00:42:01;;;;;;;48.42;7.85;;;;;;;19.52;100.00;94284.88;5002386;28;20570;-85
2022/06/23 00:44:35;;;;;;;66.53;8.27;;;;;;;19.30;100.00;94284.88;4986278;28;20427;-84
2022/06/23 00:47:03;;;;;;;64.38;7.72;;;;;;;19.13;100.00;94287.66;5019968;28;20029;-85
2022/06/23 00:49:31;;;;;;;45.80;8.00;;;;;;;19.15;100.00;94280.16;4986023;28;20030;-85
2022/06/23 00:52:03;;;;;;;55.33;8.70;;;;;;;19.24;100.00;94288.84;5002425;28;20084;-85
2022/06/23 00:54:33;;;;;;;64.32;8.52;;;;;;;19.36;100.00;94282.81;5002252;28;20022;-84
2022/06/23 00:57:06;;;;;;;64.22;8.13;;;;;;;19.40;100.00;94282.94;5002435;28;20168;-84
2022/06/23 00:59:45;;;;;;;74.27;8.60;;;;;;;19.16;100.00;94282.50;5001859;28;20038;-85
2022/06/23 01:02:24;;;;;;;61.17;8.07;;;;;;;19.46;100.00;94279.75;5002155;28;20129;-84
2022/06/23 01:04:53;;;;;;;56.72;8.52;;;;;;;19.46;100.00;94289.59;5002315;28;20052;-84
2022/06/23 01:07:18;;;;;;;66.97;8.40;;;;;;;19.28;100.00;94288.94;5002079;28;20029;-84
2022/06/23 01:09:52;;;;;;;61.55;7.88;;;;;;;18.99;100.00;94280.72;5001995;28;20053;-85
2022/06/23 01:12:25;;;;;;;52.42;8.95;;;;;;;18.98;100.00;94281.00;5001985;28;20315;-85
2022/06/23 01:15:16;;;;;;;54.70;9.40;;;;;;;18.86;100.00;94287.03;5001719;28;20101;-84
2022/06/23 01:17:51;;;;;;;53.17;8.55;;;;;;;18.99;100.00;94272.75;5001818;28;20284;-84
2022/06/23 01:20:39;;;;;;;53.00;8.68;;;;;;;18.87;100.00;94275.31;5001745;28;20053;-84
2022/06/23 01:23:07;;;;;;;52.95;8.32;;;;;;;18.77;100.00;94277.22;5019228;28;20501;-84
2022/06/23 01:26:00;;;;;;;49.00;8.13;;;;;;;18.72;100.00;94279.28;5019231;28;20439;-84
2022/06/23 01:28:29;;;;;;;46.15;7.22;;;;;;;18.94;100.00;94272.94;5001534;28;20045;-84
2022/06/23 01:31:04;;;;;;;46.17;8.32;;;;;;;18.84;100.00;94275.97;5000295;28;20132;-85
2022/06/23 01:33:44;;;;;;;56.25;9.10;;;;;;;18.76;100.00;94283.63;5001631;28;20026;-85
2022/06/23 01:36:19;;;;;;;56.03;8.20;;;;;;;18.81;100.00;94284.56;5001657;28;20395;-85
2022/06/23 01:38:53;;;;;;;53.97;8.30;;;;;;;18.86;100.00;94273.75;5001341;28;20029;-85
2022/06/23 01:41:32;;;;;;;57.60;9.15;;;;;;;18.64;100.00;94278.25;5001470;28;20439;-85
2022/06/23 01:44:05;;;;;;;52.95;7.95;;;;;;;18.87;100.00;94278.75;4985203;28;20076;-85
2022/06/23 01:46:38;;;;;;;57.45;9.18;;;;;;;18.85;100.00;94274.88;5001334;28;20068;-85
2022/06/23 01:49:27;;;;;;;51.25;7.10;;;;;;;19.03;100.00;94270.25;4985137;28;20032;-84
2022/06/23 01:51:55;;;;;;;40.05;7.57;;;;;;;18.99;100.00;94267.47;5001229;28;20104;-85
2022/06/23 01:54:22;;;;;;;51.95;8.15;;;;;;;19.01;100.00;94270.56;4985109;28;20025;-85
2022/06/23 01:56:47;;;;;;;57.40;9.02;;;;;;;18.76;100.00;94272.25;5001126;28;20033;-85
2022/06/23 01:59:21;;;;;;;57.28;8.07;;;;;;;18.82;100.00;94264.91;5018501;28;20052;-85
2022/06/23 02:02:10;;;;;;;47.22;8.38;;;;;;;18.96;100.00;94265.44;5000871;28;20025;-84
2022/06/23 02:04:50;;;;;;;46.58;8.15;;;;;;;19.04;100.00;94263.84;5018143;28;20041;-85
2022/06/23 02:07:29;;;;;;;53.08;8.70;;;;;;;18.85;100.00;94264.25;4984303;28;20084;-85
2022/06/23 02:10:01;;;;;;;54.22;8.43;;;;;;;18.58;100.00;94258.31;4984626;28;20443;-85
2022/06/23 02:12:31;;;;;;;58.20;9.25;;;;;;;18.44;100.00;94255.91;5000699;28;20117;-85
2022/06/23 02:15:06;;;;;;;53.42;8.82;;;;;;;18.71;100.00;94253.84;5000511;28;20129;-84
2022/06/23 02:17:48;;;;;;;43.03;8.30;;;;;;;18.63;100.00;94258.91;5000893;28;20335;-85
2022/06/23 02:20:27;;;;;;;67.65;9.07;;;;;;;18.66;100.00;94260.16;5000533;28;20044;-84
2022/06/23 02:23:13;;;;;;;58.10;8.77;;;;;;;18.44;100.00;94259.31;5000530;28;20050;-84
2022/06/23 02:25:51;;;;;;;59.80;8.63;;;;;;;18.52;100.00;94260.38;5000572;28;20117;-84
2022/06/23 02:28:38;;;;;;;58.22;8.57;;;;;;;18.53;100.00;94255.84;5000491;28;20124;-85
2022/06/23 02:31:39;;;;;;;37.10;7.50;;;;;;;18.83;100.00;94250.53;4997573;28;20061;-84
2022/06/23 02:34:12;;;;;;;54.28;9.20;;;;;;;18.50;100.00;94258.03;5007067;28;20092;-85
2022/06/23 02:37:20;;;;;;;63.80;9.68;;;;;;;18.41;100.00;94261.81;5000313;28;20065;-85
2022/06/23 02:39:54;;;;;;;46.78;8.45;;;;;;;18.41;100.00;94251.22;4977648;28;20047;-85
2022/06/23 02:42:25;;;;;;;65.80;8.05;;;;;;;18.38;100.00;94252.66;4967747;28;20554;-85
2022/06/23 02:45:13;;;;;;;43.28;7.82;;;;;;;18.30;100.00;94248.16;4999950;28;20030;-85
2022/06/23 02:47:52;;;;;;;57.05;8.25;;;;;;;18.37;100.00;94251.84;4984049;28;20033;-84
2022/06/23 02:50:29;;;;;;;49.60;8.18;;;;;;;18.20;100.00;94250.03;5000089;28;20029;-85
2022/06/23 02:53:07;;;;;;;52.42;8.07;;;;;;;18.17;100.00;94242.72;5017616;28;20436;-85
2022/06/23 02:55:43;;;;;;;37.83;7.85;;;;;;;18.30;100.00;94240.19;5000220;28;20025;-85
2022/06/23 02:58:25;;;;;;;44.63;8.13;;;;;;;18.49;100.00;94239.78;5017287;28;20042;-84
2022/06/23 03:01:23;;;;;;;60.13;9.13;;;;;;;18.34;100.00;94235.78;4999762;28;20087;-85
2022/06/23 03:04:18;;;;;;;55.63;8.35;;;;;;;18.47;100.00;94237.44;5014121;28;20438;-85
2022/06/23 03:06:59;;;;;;;42.78;8.13;;;;;;;18.49;100.00;94237.13;5016848;28;20041;-85
2022/06/23 03:09:28;;;;;;;44.72;8.27;;;;;;;18.69;100.00;94232.97;4999829;28;20030;-84
2022/06/23 03:12:09;;;;;;;53.28;9.27;;;;;;;18.44;100.00;94232.03;5017226;28;20029;-84
2022/06/23 03:14:56;;;;;;;56.75;7.80;;;;;;;18.41;100.00;94235.28;4999662;28;20059;-84
2022/06/23 03:17:33;;;;;;;48.58;7.80;;;;;;;18.59;100.00;94233.34;4999824;28;20088;-85
2022/06/23 03:20:07;;;;;;;59.72;8.77;;;;;;;18.66;100.00;94230.97;4980453;28;20450;-85
2022/06/23 03:22:42;;;;;;;46.20;7.65;;;;;;;18.65;100.00;94234.72;4998986;28;20030;-85
2022/06/23 03:25:16;;;;;;;53.58;9.07;;;;;;;18.62;100.00;94238.78;4983279;28;20447;-85
2022/06/23 03:27:49;;;;;;;47.67;8.23;;;;;;;18.68;100.00;94231.41;4989263;28;20332;-85
2022/06/23 03:30:27;;;;;;;50.63;8.30;;;;;;;18.79;100.00;94237.13;4999489;28;20075;-85
2022/06/23 03:33:14;;;;;;;57.90;8.52;;;;;;;18.84;100.00;94241.47;4983114;28;20034;-85
2022/06/23 03:35:45;;;;;;;53.00;8.15;;;;;;;18.87;100.00;94233.63;4999489;28;20033;-85
2022/06/23 03:41:36;;;;;;;56.40;7.72;;;;;;;18.97;100.00;94232.47;4999431;28;20320;-84
2022/06/23 03:44:21;;;;;;;55.85;7.47;;;;;;;18.93;100.00;94237.63;5001735;28;20049;-84
2022/06/23 03:46:53;;;;;;;49.38;8.30;;;;;;;18.87;100.00;94238.94;4999678;28;20036;-85
2022/06/23 03:49:46;;;;;;;49.42;8.50;;;;;;;18.91;100.00;94245.16;4998472;28;20037;-85
2022/06/23 03:52:23;;;;;;;62.92;8.20;;;;;;;18.97;100.00;94247.59;4983241;28;20053;-85
2022/06/23 03:54:57;;;;;;;63.55;8.85;;;;;;;18.75;100.00;94247.59;5003012;28;20029;-86
2022/06/23 03:57:37;;;;;;;54.28;8.07;;;;;;;18.74;100.00;94259.31;5003201;28;20033;-86
2022/06/23 04:00:24;;;;;;;58.30;9.30;;;;;;;18.75;100.00;94255.56;5002893;28;20058;-86
2022/06/23 04:03:24;;;;;;;;;;;;;;;;;;;;;
2022/06/23 04:05:56;;;;;;;66.28;9.00;;;;;;;19.09;100.00;94270.84;5017548;28;20033;-85
2022/06/23 04:08:28;;;;;;;45.40;7.18;;;;;;;19.24;100.00;94277.44;5016396;28;20033;-85
2022/06/23 04:11:42;;;;;;;42.40;7.53;;;;;;;19.43;100.00;94279.63;5020202;28;20338;-85
2022/06/23 04:13:44;;;;;;;56.30;8.15;;;;;;;19.51;100.00;94286.75;5005537;28;20378;-85
2022/06/23 04:16:10;;;;;;;61.03;8.65;;;;;;;19.50;100.00;94288.63;5002958;28;20026;-84
2022/06/23 04:18:45;;;;;;;63.80;8.10;;;;;;;19.14;100.00;94289.22;5002762;28;20120;-86
2022/06/23 04:21:19;;;;;;;53.97;7.60;;;;;;;18.93;100.00;94293.38;5003023;28;20426;-86
2022/06/23 04:23:55;;;;;;;49.80;7.75;;;;;;;19.23;100.00;94297.13;5002740;28;20025;-85
2022/06/23 04:26:33;;;;;;;58.38;7.75;;;;;;;19.29;100.00;94299.25;4986346;28;20461;-86
2022/06/23 04:29:09;;;;;;;56.17;8.85;;;;;;;19.33;100.00;94302.06;5002780;28;20422;-86
2022/06/23 04:31:40;;;;;;;55.97;7.85;;;;;;;19.33;100.00;94297.50;4986107;28;20336;-86
2022/06/23 04:34:11;;;;;;;62.33;8.18;;;;;;;19.48;100.00;94292.69;4987124;28;20394;-85
2022/06/23 04:36:43;;;;;;;60.95;8.30;;;;;;;19.45;100.00;94293.34;5002662;28;20026;-85
2022/06/23 04:39:41;;;;;;;44.60;7.72;;;;;;;19.73;100.00;94298.91;5002337;28;20064;-86
2022/06/23 04:42:23;;;;;;;49.95;7.38;;;;;;;19.99;100.00;94297.88;4986765;28;20049;-87
2022/06/23 04:44:58;;;;;;;48.22;8.27;;;;;;;19.99;100.00;94300.53;4986844;28;20030;-85
2022/06/23 04:47:27;;;;;;;69.10;8.18;;;;;;;20.25;100.00;94309.38;5002013;28;20029;-85
2022/06/23 04:50:13;;;;;;;64.70;8.02;;;;;;;20.26;100.00;94308.25;5002046;28;20022;-88
2022/06/23 04:52:44;;;;;;;81.15;9.95;;;;;;;19.92;100.00;94314.38;4985693;28;20116;-87
2022/06/23 04:55:23;;;;;;;66.55;8.88;;;;;;;20.00;100.00;94312.72;5002406;28;20025;-87
2022/06/23 04:58:20;;;;;;;64.40;9.20;;;;;;;20.02;100.00;94315.06;5002353;28;20033;-87
2022/06/23 05:00:50;;;;;;;56.08;8.40;;;;;;;19.92;100.00;94311.72;5002740;28;20030;-87
2022/06/23 05:03:30;;;;;;;58.13;7.32;;;;;;;20.04;100.00;94318.19;4999677;28;20427;-87
2022/06/23 05:06:11;;;;;;;59.47;7.45;;;;;;;20.38;100.00;94313.59;5019498;28;20041;-86
2022/06/23 05:08:40;;;;;;;60.97;9.80;;;;;;;20.52;100.00;94315.94;4985545;28;20025;-86
2022/06/23 05:11:23;;;;;;;55.72;7.95;;;;;;;20.49;100.00;94320.03;4985955;28;20026;-87
2022/06/23 05:13:51;;;;;;;63.17;8.77;;;;;;;20.98;100.00;94310.53;5002040;28;20112;-87
2022/06/23 05:16:20;;;;;;;54.75;8.10;;;;;;;20.73;100.00;94307.84;5002155;28;20434;-86
2022/06/23 05:18:51;;;;;;;67.43;7.75;;;;;;;21.29;100.00;94316.31;5001718;28;20117;-87
2022/06/23 05:24:56;;;;;;;54.72;7.13;;;;;;;22.31;100.00;94322.50;4964623;28;20031;-87
2022/06/23 05:27:29;;;;;;;48.53;7.30;;;;;;;22.68;100.00;94321.50;4982216;28;20047;-87
2022/06/23 05:30:25;;;;;;;65.05;8.80;;;;;;;22.57;100.00;94329.25;4982404;28;20109;-86
2022/06/23 05:33:04;;;;;;;51.63;8.68;;;;;;;22.85;100.00;94331.03;4982388;28;20084;-86
2022/06/23 05:35:38;;;;;;;55.63;8.32;;;;;;;23.03;100.00;94334.13;4982057;28;20026;-86
2022/06/23 05:38:06;;;;;;;65.32;8.77;;;;;;;23.04;100.00;94338.34;4982089;28;20022;-86
2022/06/23 05:40:54;;;;;;;64.30;8.45;;;;;;;22.18;100.00;94340.47;4981737;28;20026;-86
2022/06/23 05:43:20;;;;;;;66.53;8.63;;;;;;;21.55;100.00;94345.25;4981976;28;20018;-86
2022/06/23 05:45:53;;;;;;;44.80;7.30;;;;;;;21.39;100.00;94344.41;4981807;28;20085;-87
2022/06/23 05:48:24;;;;;;;63.23;8.93;;;;;;;21.64;100.00;94350.44;4980834;28;20034;-86
2022/06/23 05:50:52;;;;;;;40.92;8.05;;;;;;;22.11;100.00;94353.63;4981673;28;20104;-87
2022/06/23 05:53:36;;;;;;;47.70;8.85;;;;;;;21.40;100.00;94349.41;4981856;28;20038;-86
2022/06/23 05:56:13;;;;;;;56.67;8.20;;;;;;;21.77;100.00;94348.53;4981663;28;20022;-86
2022/06/23 05:59:02;;;;;;;50.58;7.70;;;;;;;21.88;100.00;94351.50;4997724;28;20427;-88
2022/06/23 06:01:45;;;;;;;50.58;6.88;;;;;;;22.33;100.00;94360.28;4982113;28;20068;-87
2022/06/23 06:04:18;;;;;;;49.15;7.63;;;;;;;22.58;100.00;94347.56;4998892;28;20116;-87
2022/06/23 06:06:45;;;;;;;47.33;7.28;;;;;;;22.73;100.00;94348.72;4981794;28;20423;-86
2022/06/23 06:11:58;;;;;;;47.60;6.95;;;;;;;23.88;100.00;94348.09;4984232;28;20056;-86
2022/06/23 06:14:27;;;;;;;56.70;8.05;;;;;;;22.79;100.00;94335.09;4981336;28;20022;-87
2022/06/23 06:16:54;;;;;;;43.03;6.85;;;;;;;23.49;100.00;94338.91;4998441;28;20033;-87
2022/06/23 06:19:21;;;;;;;52.83;7.43;;;;;;;23.96;100.00;94325.69;4981211;28;20076;-87
2022/06/23 06:21:48;;;;;;;46.33;7.50;;;;;;;23.92;100.00;94330.19;4981430;28;20084;-86
2022/06/23 06:24:31;;;;;;;60.35;7.70;;;;;;;23.33;100.00;94328.31;4981115;28;20324;-87
2022/06/23 06:26:56;;;;;;;;;;;;;;;22.86;100.00;94327.25;4981638;28;20133;-87
2022/06/23 06:29:24;;;;;;;40.63;7.72;;;;;;;23.84;100.00;94326.59;4981229;28;20337;-87
2022/06/23 06:31:57;;;;;;;52.97;7.38;;;;;;;23.98;100.00;94326.13;4997414;28;20033;-86
2022/06/23 06:34:29;;;;;;;58.53;7.57;;;;;;;23.95;100.00;94337.50;4980916;28;20030;-86
2022/06/23 06:36:55;;;;;;;45.33;7.25;;;;;;;24.20;100.00;94331.88;4980888;28;20057;-86
2022/06/23 06:39:28;;;;;;;42.70;7.82;;;;;;;23.75;100.00;94342.13;4997130;28;20100;-86
2022/06/23 06:42:03;;;;;;;46.00;7.07;;;;;;;24.49;100.00;94343.06;4964562;28;20032;-85
2022/06/23 06:44:30;;;;;;;55.08;8.50;;;;;;;23.81;100.00;94343.38;4980663;28;20035;-85
2022/06/23 06:46:56;;;;;;;52.72;7.22;;;;;;;24.32;100.00;94339.75;4998047;28;20030;-86
2022/06/23 06:49:24;;;;;;;67.13;9.55;;;;;;;24.37;100.00;94350.13;4998146;28;20033;-84
2022/06/23 06:51:51;;;;;;;48.55;8.65;;;;;;;24.49;100.00;94353.78;4980628;28;20049;-86
2022/06/23 06:54:24;;;;;;;47.58;7.55;;;;;;;23.73;100.00;94353.91;4980665;28;20030;-84
2022/06/23 06:56:56;;;;;;;44.25;7.25;;;;;;;24.26;100.00;94346.53;4980488;28;20038;-84
2022/06/23 06:59:34;;;;;;;52.50;8.93;;;;;;;23.75;100.00;94350.91;4980503;28;20022;-85
2022/06/23 07:02:19;;;;;;;55.55;7.97;;;;;;;23.93;100.00;94355.81;4997866;28;20030;-84
2022/06/23 07:05:10;;;;;;;51.13;7.97;;;;;;;24.66;100.00;94355.97;4964529;28;20121;-83
2022/06/23 07:07:40;;;;;;;51.28;7.63;;;;;;;24.66;100.00;94365.94;4970969;28;20042;-84
2022/06/23 07:10:20;;;;;;;46.03;7.25;;;;;;;24.15;100.00;94370.41;4980270;28;20347;-84
2022/06/23 07:12:51;;;;;;;47.60;8.07;;;;;;;24.51;100.00;94373.72;4980365;28;20026;-83
2022/06/23 07:15:42;;;;;;;41.75;7.95;;;;;;;25.14;100.00;94373.59;4963727;28;20042;-83
2022/06/23 07:18:25;;;;;;;60.70;8.30;;;;;;;24.68;100.00;94377.84;4980392;28;20089;-86
2022/06/23 07:20:58;;;;;;;46.13;7.45;;;;;;;25.32;100.00;94376.53;4997568;28;20037;-86
2022/06/23 07:23:25;;;;;;;;;;;;;;;25.03;100.00;94376.09;4996685;28;20030;-86
2022/06/23 07:25:54;;;;;;;38.47;7.28;;;;;;;25.01;100.00;94378.34;4980149;28;19945;-86
2022/06/23 07:28:26;;;;;;;56.50;8.20;;;;;;;24.73;100.00;94379.44;4979306;28;20027;-86
2022/06/23 07:30:55;;;;;;;50.05;8.43;;;;;;;24.80;100.00;94378.78;4997521;28;20445;-87
2022/06/23 07:33:33;;;;;;;64.00;8.90;;;;;;;25.03;100.00;94378.00;4997511;28;20022;-85
2022/06/23 07:36:06;;;;;;;53.47;8.75;;;;;;;26.05;100.00;94386.25;4999579;28;20026;-85
2022/06/23 07:38:58;;;;;;;51.33;7.73;;;;;;;26.13;100.00;94386.34;4983091;28;20025;-86
2022/06/23 07:41:26;;;;;;;44.95;7.32;;;;;;;26.47;100.00;94389.03;4999469;28;20021;-85
2022/06/23 07:44:00;;;;;;;57.53;8.80;;;;;;;25.91;100.00;94399.53;5016690;28;20457;-85
2022/06/23 07:46:25;;;;;;;60.88;9.02;;;;;;;26.00;100.00;94404.59;4999423;28;20439;-86
2022/06/23 07:48:52;;;;;;;59.03;8.25;;;;;;;24.90;100.00;94407.69;4998949;28;20037;-87
2022/06/23 07:51:17;;;;;;;46.63;8.05;;;;;;;25.19;100.00;94410.81;4999638;28;20037;-86
2022/06/23 07:53:46;;;;;;;43.80;8.07;;;;;;;25.67;100.00;94409.56;4999318;28;20026;-86
2022/06/23 07:56:28;;;;;;;49.35;7.45;;;;;;;26.25;100.00;94424.50;4999159;28;20033;-86
2022/06/23 07:59:01;;;;;;;42.95;7.25;;;;;;;26.44;100.00;94424.69;4968132;28;20038;-86
2022/06/23 08:01:30;;;;;;;43.08;6.47;;;;;;;26.96;100.00;94414.81;4999295;28;20025;-86
2022/06/23 08:03:58;;;;;;;56.35;8.63;;;;;;;24.98;100.00;94422.75;4999559;28;20045;-86
2022/06/23 08:06:25;;;;;;;59.22;8.13;;;;;;;25.77;100.00;94416.97;5016617;28;20061;-86
2022/06/23 08:08:57;;;;;;;51.78;7.22;;;;;;;26.09;100.00;94430.03;4999120;28;20084;-86
2022/06/23 08:14:16;;;;;;;51.40;7.57;;;;;;;26.72;100.00;94428.78;5001779;28;20061;-87
2022/06/23 08:16:52;;;;;;;50.70;8.05;;;;;;;25.39;100.00;94429.47;4999336;28;20057;-86
2022/06/23 08:19:29;;;;;;;44.03;6.97;;;;;;;26.17;100.00;94432.81;5000200;28;20030;-86
2022/06/23 08:22:18;;;;;;;39.15;6.78;;;;;;;27.18;100.00;94438.41;4999025;28;20207;-86
2022/06/23 08:24:48;;;;;;;38.88;6.95;;;;;;;27.32;100.00;94437.75;4988851;28;20034;-86
2022/06/23 08:27:18;;;;;;;60.85;8.85;;;;;;;25.48;100.00;94434.59;4982957;28;20034;-86
2022/06/23 08:30:07;;;;;;;40.88;7.90;;;;;;;26.15;100.00;94427.78;4999068;28;20076;-86
2022/06/23 08:32:33;;;;;;;45.40;7.70;;;;;;;26.46;100.00;94422.41;4999082;28;20030;-86
2022/06/23 08:35:20;;;;;;;43.25;8.45;;;;;;;26.28;100.00;94414.16;4998806;28;20077;-87
2022/06/23 08:38:02;;;;;;;43.90;7.55;;;;;;;27.49;100.00;94412.88;5016296;28;20096;-86
2022/06/23 08:40:39;;;;;;;51.30;8.55;;;;;;;27.80;100.00;94407.31;5001591;28;20080;-87
2022/06/23 08:43:22;;;;;;;49.45;7.70;;;;;;;26.62;100.00;94396.06;5002871;28;20382;-86
2022/06/23 08:46:17;;;;;;;46.22;7.18;;;;;;;26.28;100.00;94403.41;5002456;28;20081;-87
2022/06/23 08:49:06;;;;;;;57.47;7.60;;;;;;;27.16;100.00;94419.19;4979226;28;20045;-86
2022/06/23 08:51:56;;;;;;;43.28;7.20;;;;;;;27.40;100.00;94417.81;5002372;28;20025;-86
2022/06/23 08:54:38;;;;;;;54.50;8.63;;;;;;;26.67;100.00;94416.47;5019829;28;20129;-87
2022/06/23 08:57:10;;;;;;;66.63;8.27;;;;;;;26.84;100.00;94425.06;5019719;28;20072;-87
2022/06/23 08:59:43;;;;;;;40.90;7.32;;;;;;;26.68;100.00;94426.06;5019605;28;20034;-86
2022/06/23 09:02:27;;;;;;;45.22;7.15;;;;;;;27.42;100.00;94426.28;5002396;28;20030;-86
2022/06/23 09:05:06;;;;;;;44.72;6.82;;;;;;;27.36;100.00;94423.19;5002326;28;20034;-86
2022/06/23 09:07:38;;;;;;;37.17;6.90;;;;;;;27.77;100.00;94427.66;5002336;28;20343;-86
2022/06/23 09:10:22;;;;;;;45.22;7.30;;;;;;;27.70;100.00;94433.03;5002165;28;20034;-86
2022/06/23 09:13:07;;;;;;;37.65;6.78;;;;;;;27.14;100.00;94430.34;5019131;28;20037;-86
2022/06/23 09:15:52;;;;;;;39.15;6.78;;;;;;;27.10;100.00;94427.59;5002034;28;20025;-86
2022/06/23 09:18:34;;;;;;;42.88;6.50;;;;;;;28.05;96.56;94426.25;5001922;28;20036;-87
2022/06/23 09:21:00;;;;;;;44.30;7.32;;;;;;;28.20;95.56;94427.13;5002306;28;20029;-86
2022/06/23 09:23:34;;;;;;;45.63;7.40;;;;;;;28.28;88.21;94427.13;5019154;28;20034;-86
2022/06/23 09:26:07;;;;;;;46.78;8.60;;;;;;;28.65;93.40;94437.59;5019177;28;20120;-85
2022/06/23 09:28:39;;;;;;;42.20;7.13;;;;;;;28.44;88.00;94443.72;5001919;28;20037;-85
2022/06/23 09:31:32;;;;;;;51.38;7.32;;;;;;;28.69;85.05;94447.63;5001570;28;20057;-86
2022/06/23 09:34:13;;;;;;;39.28;7.55;;;;;;;28.32;100.00;94452.94;4999946;28;20026;-87
2022/06/23 09:37:04;;;;;;;47.58;6.40;;;;;;;28.46;98.81;94454.13;5019019;28;20385;-86
2022/06/23 09:39:33;;;;;;;49.97;7.93;;;;;;;27.93;100.00;94459.69;4997771;28;20482;-87
2022/06/23 09:42:16;;;;;;;41.95;7.63;;;;;;;27.23;100.00;94454.97;5001691;28;20026;-87
2022/06/23 09:44:59;;;;;;;49.15;7.97;;;;;;;27.35;100.00;94458.50;5018870;28;20072;-87
2022/06/23 09:47:57;;;;;;;;;;;;;;;28.14;100.00;94457.47;5002034;28;20351;-86
2022/06/23 09:50:32;;;;;;;34.60;7.32;;;;;;;28.64;100.00;94446.84;4974471;28;19916;-86
2022/06/23 09:52:57;;;;;;;48.58;7.43;;;;;;;28.21;98.59;94444.81;5018544;28;20037;-87
2022/06/23 09:55:47;;;;;;;39.92;6.93;;;;;;;28.57;86.86;94430.69;5018664;28;20030;-87
2022/06/23 09:58:51;;;;;;;51.25;9.23;;;;;;;28.09;76.06;94435.13;5018456;28;20033;-86
2022/06/23 10:01:37;;;;;;;40.38;6.93;;;;;;;28.55;89.24;94433.00;5001333;28;20116;-86
2022/06/23 10:04:09;;;;;;;51.38;8.02;;;;;;;28.66;87.47;94427.63;5000926;28;20037;-87
2022/06/23 10:06:46;;;;;;;45.28;7.93;;;;;;;28.09;100.00;94439.75;5001263;28;20424;-87
2022/06/23 10:09:35;;;;;;;39.10;7.35;;;;;;;28.86;98.38;94432.66;4985442;28;20030;-87
2022/06/23 10:12:31;;;;;;;56.58;8.52;;;;;;;28.71;100.00;94434.56;5001084;28;20040;-86
2022/06/23 10:15:04;;;;;;;49.42;7.47;;;;;;;28.43;100.00;94433.34;5018345;28;20048;-86
2022/06/23 10:17:32;;;;;;;48.08;7.20;;;;;;;27.98;100.00;94434.31;5001354;28;20038;-87
2022/06/23 10:20:25;;;;;;;42.65;8.43;;;;;;;27.56;100.00;94427.56;5000833;28;20072;-87
2022/06/23 10:23:11;;;;;;;34.38;7.60;;;;;;;28.31;100.00;94423.66;5018224;28;20061;-86
2022/06/23 10:25:36;;;;;;;37.58;7.55;;;;;;;28.77;100.00;94433.78;5017471;28;20050;-85
2022/06/23 10:28:17;;;;;;;51.38;8.50;;;;;;;28.35;99.94;94425.22;5018079;28;20057;-86
2022/06/23 10:30:48;;;;;;;44.25;7.68;;;;;;;28.36;99.38;94424.06;5017984;28;20116;-87
2022/06/23 10:33:28;;;;;;;52.28;7.95;;;;;;;28.04;100.00;94426.63;5017972;28;20343;-87
2022/06/23 10:36:06;;;;;;;39.10;7.07;;;;;;;28.78;100.00;94421.06;5018103;28;20030;-86
2022/06/23 10:38:32;;;;;;;31.85;6.95;;;;;;;28.52;90.71;94416.81;4989497;28;20673;-86
2022/06/23 10:41:04;;;;;;;42.42;8.27;;;;;;;29.32;93.31;94436.53;5017599;28;20033;-87
2022/06/23 10:43:48;;;;;;;29.48;7.38;;;;;;;29.61;77.09;94439.19;4984795;28;20076;-89
2022/06/23 10:46:21;;;;;;;35.35;7.15;;;;;;;29.23;82.97;94445.00;4984551;28;20096;-87
2022/06/23 10:49:07;;;;;;;33.15;7.82;;;;;;;29.63;88.61;94440.38;4984414;28;20430;-86
2022/06/23 10:51:44;;;;;;;37.50;6.57;;;;;;;30.26;87.54;94439.00;5017906;28;20099;-86
2022/06/23 10:54:47;;;;;;;41.65;7.68;;;;;;;30.51;85.73;94443.53;5017621;28;20029;-86
2022/06/23 10:57:24;;;;;;;35.53;7.73;;;;;;;30.22;81.48;94446.38;5000100;28;20425;-86
2022/06/23 10:59:52;;;;;;;33.03;6.60;;;;;;;30.51;87.20;94451.63;5017468;28;20295;-87
2022/06/23 11:02:42;;;;;;;33.25;7.15;;;;;;;30.69;80.20;94458.88;5017340;28;20026;-85
2022/06/23 11:05:31;;;;;;;31.27;7.13;;;;;;;31.53;71.36;94464.47;4999969;28;20038;-86
2022/06/23 11:08:34;;;;;;;35.65;7.38;;;;;;;30.25;72.82;94472.59;5017311;28;20441;-86
2022/06/23 11:11:18;;;;;;;37.63;7.23;;;;;;;29.86;78.41;94474.22;5017304;28;20056;-85
2022/06/23 11:14:21;;;;;;;39.15;6.63;;;;;;;28.24;100.00;94489.06;4999931;28;20637;-86
2022/06/23 11:17:13;;;;;;;38.10;5.78;;;;;;;29.04;72.40;94492.00;5017312;28;20036;-86
2022/06/23 11:19:46;;;;;;;37.45;6.05;;;;;;;26.87;75.33;94481.56;4983885;28;20095;-87
2022/06/23 11:23:10;;;;;;;33.30;6.60;;;;;;;27.47;69.68;94492.41;5000171;28;20419;-88
2022/06/23 11:26:10;;;;;;;46.20;7.78;;;;;;;27.11;72.57;94492.91;4927758;29;20086;-86
2022/06/23 11:28:42;;;;;;;51.58;7.13;;;;;;;25.65;77.50;94486.97;4940281;29;20066;-86
2022/06/23 11:31:24;;;;;;;42.22;6.40;;;;;;;24.96;84.85;94502.72;4994908;28;20042;-86
2022/06/23 11:34:13;;;;;;;46.25;7.43;;;;;;;24.32;100.00;94507.59;4999654;28;20025;-87
2022/06/23 11:36:56;;;;;;;38.42;7.05;;;;;;;23.73;100.00;94509.03;4999306;28;20092;-86
2022/06/23 11:39:24;;;;;;;61.17;8.85;;;;;;;22.92;100.00;94499.47;4983437;28;20057;-87
2022/06/23 11:42:07;;;;;;;50.38;7.03;;;;;;;22.91;100.00;94492.59;4999612;28;20041;-87
2022/06/23 11:44:41;;;;;;;47.45;8.35;;;;;;;22.66;100.00;94492.72;5016671;28;20446;-87
2022/06/23 11:47:26;;;;;;;48.55;7.65;;;;;;;22.36;100.00;94495.69;4999460;28;20037;-87
2022/06/23 11:50:27;;;;;;;47.30;8.30;;;;;;;21.83;100.00;94487.75;4983845;28;20088;-86
2022/06/23 11:52:53;;;;;;;45.85;8.00;;;;;;;21.96;100.00;94467.16;4995718;28;20038;-86
2022/06/23 11:55:24;;;;;;;55.20;9.55;;;;;;;21.52;100.00;94457.88;5016717;28;20106;-86
2022/06/23 11:58:15;;;;;;;44.70;7.90;;;;;;;21.09;100.00;94469.84;5016645;28;20056;-86
2022/06/23 12:01:18;;;;;;;43.67;9.25;;;;;;;20.67;100.00;94481.41;5015230;28;20092;-87
2022/06/23 12:04:25;;;;;;;44.00;7.95;;;;;;;20.89;100.00;94493.59;4999250;28;20030;-86
2022/06/23 12:07:06;;;;;;;35.50;7.25;;;;;;;21.22;100.00;94484.75;5016686;28;20493;-86
2022/06/23 12:09:56;;;;;;;48.33;8.70;;;;;;;21.65;100.00;94489.84;5016528;28;20026;-88
2022/06/23 12:12:22;;;;;;;45.90;8.02;;;;;;;21.84;100.00;94484.75;5016556;28;20026;-86
2022/06/23 12:14:50;;;;;;;39.33;7.05;;;;;;;21.87;100.00;94483.28;5004291;28;20476;-89
2022/06/23 12:17:32;;;;;;;34.88;7.50;;;;;;;21.99;100.00;94483.25;5003521;28;20036;-87
2022/06/23 12:20:11;;;;;;;50.80;8.65;;;;;;;21.91;100.00;94475.38;5003105;28;20331;-86